createdAt,value
2019-05-22T00:01:00.313Z,15.90
2019-05-22T00:03:40.870Z,15.90
2019-05-22T00:06:14.531Z,15.90
2019-05-22T00:08:47.597Z,15.80
2019-05-22T00:11:21.229Z,15.80
2019-05-22T00:13:54.625Z,15.80
2019-05-22T00:16:27.066Z,15.80
2019-05-22T00:18:58.835Z,15.80
2019-05-22T00:21:33.068Z,15.80
2019-05-22T00:24:07.731Z,15.70
2019-05-22T00:26:43.463Z,15.80
2019-05-22T00:29:15.487Z,15.80
2019-05-22T00:31:48.794Z,15.80
2019-05-22T00:34:21.266Z,15.70
2019-05-22T00:36:53.742Z,15.50
2019-05-22T00:39:27.888Z,15.40
2019-05-22T00:42:00.454Z,15.40
2019-05-22T00:44:34.412Z,15.30
2019-05-22T00:47:11.132Z,15.30
2019-05-22T00:49:45.832Z,15.30
2019-05-22T00:52:40.741Z,15.20
2019-05-22T00:55:24.680Z,15.20
2019-05-22T00:58:04.140Z,15.20
2019-05-22T01:00:42.143Z,15.10
2019-05-22T01:03:17.237Z,15.20
2019-05-22T01:05:51.142Z,15.20
2019-05-22T01:08:27.741Z,15.10
2019-05-22T01:11:00.365Z,15.10
2019-05-22T01:13:37.055Z,15.00
2019-05-22T01:16:12.603Z,15.00
2019-05-22T01:18:46.331Z,15.10
2019-05-22T01:21:21.081Z,15.20
2019-05-22T01:23:55.363Z,15.10
2019-05-22T01:26:28.664Z,15.10
2019-05-22T01:29:03.071Z,15.00
2019-05-22T01:31:40.821Z,15.00
2019-05-22T01:34:12.735Z,14.90
2019-05-22T01:36:47.788Z,14.90
2019-05-22T01:39:48.167Z,14.90
2019-05-22T01:42:27.877Z,14.90
2019-05-22T01:45:06.512Z,15.10
2019-05-22T01:47:46.222Z,15.00
2019-05-22T01:50:28.358Z,15.10
2019-05-22T01:53:03.157Z,15.00
2019-05-22T01:55:35.581Z,14.90
2019-05-22T01:58:10.116Z,14.90
2019-05-22T02:00:43.483Z,14.80
2019-05-22T02:03:17.098Z,14.80
2019-05-22T02:05:49.033Z,14.80
2019-05-22T02:08:22.340Z,14.80
2019-05-22T02:10:57.252Z,14.80
2019-05-22T02:13:39.328Z,14.70
2019-05-22T02:16:11.770Z,14.60
2019-05-22T02:18:47.273Z,14.60
2019-05-22T02:21:21.079Z,14.70
2019-05-22T02:23:53.839Z,14.50
2019-05-22T02:26:26.759Z,14.60
2019-05-22T02:28:59.690Z,14.60
2019-05-22T02:31:33.454Z,14.60
2019-05-22T02:34:06.355Z,14.60
2019-05-22T02:36:40.125Z,14.60
2019-05-22T02:39:28.779Z,14.60
2019-05-22T02:42:07.585Z,14.50
2019-05-22T02:44:40.888Z,14.50
2019-05-22T02:47:19.802Z,14.40
2019-05-22T02:49:51.405Z,14.40
2019-05-22T02:52:25.812Z,14.40
2019-05-22T02:54:58.298Z,14.40
2019-05-22T02:57:31.087Z,14.30
2019-05-22T03:00:04.104Z,14.30
2019-05-22T03:02:45.673Z,14.30
2019-05-22T03:05:18.386Z,14.20
2019-05-22T03:07:51.550Z,14.30
2019-05-22T03:10:26.244Z,14.20
2019-05-22T03:12:59.332Z,14.20
2019-05-22T03:15:32.259Z,14.30
2019-05-22T03:18:08.445Z,14.30
2019-05-22T03:20:40.617Z,14.30
2019-05-22T03:23:38.515Z,14.30
2019-05-22T03:26:10.779Z,14.30
2019-05-22T03:28:43.127Z,14.40
2019-05-22T03:31:15.859Z,14.30
2019-05-22T03:33:48.353Z,14.30
2019-05-22T03:36:21.853Z,14.30
2019-05-22T03:38:55.102Z,14.30
2019-05-22T03:41:27.143Z,14.30
2019-05-22T03:44:00.589Z,14.30
2019-05-22T03:46:37.472Z,14.30
2019-05-22T03:49:28.143Z,14.20
2019-05-22T03:51:47.641Z,14.20
2019-05-22T03:54:21.211Z,14.20
2019-05-22T03:56:53.801Z,14.10
2019-05-22T03:59:25.982Z,14.00
2019-05-22T04:01:58.397Z,13.80
2019-05-22T04:04:40.035Z,13.80
2019-05-22T04:07:15.633Z,13.80
2019-05-22T04:09:52.314Z,13.80
2019-05-22T04:12:24.678Z,13.80
2019-05-22T04:14:57.697Z,13.80
2019-05-22T04:17:30.344Z,13.70
2019-05-22T04:20:03.128Z,13.70
2019-05-22T04:22:35.614Z,13.70
2019-05-22T04:25:08.591Z,13.60
2019-05-22T04:27:41.099Z,13.60
2019-05-22T04:30:14.256Z,13.60
2019-05-22T04:32:47.448Z,13.60
2019-05-22T04:35:20.402Z,13.60
2019-05-22T04:37:53.472Z,13.60
2019-05-22T04:40:56.172Z,13.50
2019-05-22T04:43:32.425Z,13.40
2019-05-22T04:46:08.027Z,13.40
2019-05-22T04:48:45.781Z,13.40
2019-05-22T04:51:23.619Z,13.30
2019-05-22T04:53:56.395Z,13.40
2019-05-22T04:56:29.111Z,13.40
2019-05-22T04:59:02.088Z,13.50
2019-05-22T05:01:34.603Z,13.40
2019-05-22T05:04:07.372Z,13.40
2019-05-22T05:06:40.669Z,13.40
2019-05-22T05:09:13.458Z,13.40
2019-05-22T05:11:45.688Z,13.30
2019-05-22T05:14:17.760Z,13.40
2019-05-22T05:16:51.195Z,13.40
2019-05-22T05:19:23.434Z,13.30
2019-05-22T05:21:55.419Z,13.30
2019-05-22T05:24:29.101Z,13.30
2019-05-22T05:27:02.427Z,13.30
2019-05-22T05:29:34.474Z,13.30
2019-05-22T05:32:07.923Z,13.30
2019-05-22T05:34:57.263Z,13.30
2019-05-22T05:37:29.437Z,13.30
2019-05-22T05:40:28.034Z,13.30
2019-05-22T05:43:01.433Z,13.30
2019-05-22T05:45:33.986Z,13.20
2019-05-22T05:48:07.531Z,13.30
2019-05-22T05:51:01.086Z,13.30
2019-05-22T05:53:37.037Z,13.20
2019-05-22T05:56:13.087Z,13.10
2019-05-22T05:58:46.740Z,13.00
2019-05-22T06:01:37.420Z,12.90
2019-05-22T06:04:12.060Z,12.90
2019-05-22T06:07:17.716Z,12.80
2019-05-22T06:10:29.469Z,12.80
2019-05-22T06:13:01.816Z,12.80
2019-05-22T06:15:49.112Z,12.80
2019-05-22T06:18:33.636Z,12.70
2019-05-22T06:21:06.700Z,12.70
2019-05-22T06:24:19.362Z,12.70
2019-05-22T06:27:22.176Z,12.60
2019-05-22T06:30:03.374Z,12.70
2019-05-22T06:33:15.010Z,12.70
2019-05-22T06:35:49.156Z,12.80
2019-05-22T06:38:49.076Z,12.70
2019-05-22T06:41:28.823Z,12.70
2019-05-22T06:44:36.562Z,12.70
2019-05-22T06:47:12.921Z,12.80
2019-05-22T06:49:45.963Z,12.80
2019-05-22T06:52:18.372Z,12.80
2019-05-22T06:54:51.080Z,12.70
2019-05-22T06:57:26.713Z,12.60
2019-05-22T07:00:13.548Z,12.70
2019-05-22T07:02:34.906Z,12.80
2019-05-22T07:05:08.538Z,12.80
2019-05-22T07:07:41.787Z,12.80
2019-05-22T07:10:14.524Z,12.90
2019-05-22T07:12:50.453Z,12.90
2019-05-22T07:15:24.577Z,12.70
2019-05-22T07:17:57.357Z,12.70
2019-05-22T07:20:32.630Z,12.70
2019-05-22T07:23:07.962Z,12.80
2019-05-22T07:25:42.068Z,12.90
2019-05-22T07:28:17.215Z,12.90
2019-05-22T07:30:49.963Z,12.80
2019-05-22T07:33:23.139Z,12.80
2019-05-22T07:36:16.131Z,12.80
2019-05-22T07:38:29.377Z,12.70
2019-05-22T07:41:01.762Z,12.70
2019-05-22T07:43:34.099Z,12.70
2019-05-22T07:46:05.848Z,12.80
2019-05-22T07:48:38.609Z,12.80
2019-05-22T07:51:10.664Z,12.70
2019-05-22T07:53:42.645Z,12.80
2019-05-22T07:56:14.977Z,12.70
2019-05-22T07:58:46.976Z,12.80
2019-05-22T08:01:19.583Z,12.80
2019-05-22T08:03:52.877Z,12.80
2019-05-22T08:06:24.848Z,12.90
2019-05-22T08:08:58.094Z,12.80
2019-05-22T08:11:30.288Z,12.70
2019-05-22T08:14:04.379Z,12.70
2019-05-22T08:16:43.004Z,12.80
2019-05-22T08:19:14.929Z,12.70
2019-05-22T08:21:47.299Z,12.70
2019-05-22T08:24:20.240Z,12.80
2019-05-22T08:26:54.880Z,12.80
2019-05-22T08:29:27.093Z,12.90
2019-05-22T08:31:58.958Z,12.80
2019-05-22T08:34:31.205Z,12.70
2019-05-22T08:37:07.839Z,12.70
2019-05-22T08:39:40.460Z,12.60
2019-05-22T08:42:14.619Z,12.60
2019-05-22T08:44:46.463Z,12.70
2019-05-22T08:47:18.905Z,12.70
2019-05-22T08:49:50.921Z,12.80
2019-05-22T08:52:24.221Z,12.90
2019-05-22T08:54:57.867Z,13.00
2019-05-22T08:57:30.230Z,12.90
2019-05-22T09:00:05.375Z,13.00
2019-05-22T09:02:37.419Z,12.90
2019-05-22T09:05:10.033Z,12.90
2019-05-22T09:07:42.717Z,13.00
2019-05-22T09:10:15.838Z,12.90
2019-05-22T09:12:48.271Z,13.10
2019-05-22T09:15:21.548Z,13.00
2019-05-22T09:17:54.289Z,12.90
2019-05-22T09:20:26.351Z,13.00
2019-05-22T09:23:00.237Z,13.00
2019-05-22T09:25:34.558Z,13.00
2019-05-22T09:30:39.419Z,13.20
2019-05-22T09:33:11.685Z,13.20
2019-05-22T09:35:43.852Z,13.20
2019-05-22T09:38:19.186Z,13.20
2019-05-22T09:40:52.906Z,13.20
2019-05-22T09:43:26.225Z,13.20
2019-05-22T09:45:59.112Z,13.30
2019-05-22T09:48:34.174Z,13.40
2019-05-22T09:51:06.924Z,13.40
2019-05-22T09:53:40.399Z,13.20
2019-05-22T09:56:12.497Z,13.30
2019-05-22T09:58:45.211Z,13.30
2019-05-22T10:01:17.410Z,13.30
2019-05-22T10:03:49.639Z,13.30
2019-05-22T10:06:21.876Z,13.30
2019-05-22T10:08:54.023Z,13.30
2019-05-22T10:11:26.415Z,13.30
2019-05-22T10:13:59.046Z,13.30
2019-05-22T10:16:30.992Z,13.40
2019-05-22T10:19:03.381Z,13.40
2019-05-22T10:21:35.362Z,13.50
2019-05-22T10:24:07.903Z,13.50
2019-05-22T10:26:40.902Z,13.30
2019-05-22T10:29:13.128Z,13.40
2019-05-22T10:31:45.271Z,13.50
2019-05-22T10:34:17.011Z,13.50
2019-05-22T10:36:48.939Z,13.40
2019-05-22T10:39:24.703Z,13.50
2019-05-22T10:41:57.460Z,13.30
2019-05-22T10:44:30.224Z,13.30
2019-05-22T10:47:03.796Z,13.30
2019-05-22T10:49:36.567Z,13.30
2019-05-22T10:52:09.063Z,13.40
2019-05-22T10:54:40.836Z,13.40
2019-05-22T10:57:13.497Z,13.40
2019-05-22T10:59:45.512Z,13.50
2019-05-22T11:02:17.991Z,13.60
2019-05-22T11:04:50.766Z,13.60
2019-05-22T11:07:23.935Z,13.60
2019-05-22T11:13:34.009Z,13.40
2019-05-22T11:16:05.646Z,13.40
2019-05-22T11:18:38.055Z,13.40
2019-05-22T11:21:11.248Z,13.40
2019-05-22T11:23:52.055Z,13.30
2019-05-22T11:26:17.736Z,13.30
2019-05-22T11:28:49.534Z,13.30
2019-05-22T11:31:22.259Z,13.40
2019-05-22T11:33:54.318Z,13.30
2019-05-22T11:36:26.431Z,13.50
2019-05-22T11:38:58.851Z,13.60
2019-05-22T11:45:17.600Z,13.80
2019-05-22T11:47:51.219Z,13.70
2019-05-22T11:50:24.904Z,13.70
2019-05-22T11:52:57.135Z,13.60
2019-05-22T11:55:43.825Z,13.40
2019-05-22T11:58:05.889Z,13.30
2019-05-22T12:00:38.843Z,13.30
2019-05-22T12:03:12.202Z,13.30
2019-05-22T12:05:44.502Z,13.30
2019-05-22T12:08:16.653Z,13.20
2019-05-22T12:10:49.918Z,13.30
2019-05-22T12:13:22.509Z,13.30
2019-05-22T12:15:55.502Z,13.30
2019-05-22T12:18:28.117Z,13.30
2019-05-22T12:21:01.061Z,13.50
2019-05-22T12:23:33.312Z,13.50
2019-05-22T12:26:06.058Z,13.40
2019-05-22T12:28:39.250Z,13.50
2019-05-22T12:31:11.543Z,13.40
2019-05-22T12:33:43.490Z,13.30
2019-05-22T12:36:16.629Z,13.30
2019-05-22T12:38:49.151Z,13.40
2019-05-22T12:41:21.387Z,13.40
2019-05-22T12:43:54.163Z,13.50
2019-05-22T12:46:28.089Z,13.40
2019-05-22T12:49:00.797Z,13.50
2019-05-22T12:51:33.725Z,13.60
2019-05-22T12:54:05.927Z,13.60
2019-05-22T12:56:38.540Z,13.60
2019-05-22T12:59:11.822Z,13.50
2019-05-22T13:01:45.320Z,13.50
2019-05-22T13:04:17.442Z,13.40
2019-05-22T13:06:50.242Z,13.30
2019-05-22T13:09:22.619Z,13.40
2019-05-22T13:11:54.707Z,13.30
2019-05-22T13:14:26.814Z,13.30
2019-05-22T13:16:59.333Z,13.20
2019-05-22T13:19:32.594Z,13.30
2019-05-22T13:22:10.628Z,13.40
2019-05-22T13:24:43.419Z,13.30
2019-05-22T13:27:17.076Z,13.30
2019-05-22T13:29:51.169Z,13.20
2019-05-22T13:32:27.291Z,13.10
2019-05-22T13:35:00.799Z,13.10
2019-05-22T13:37:34.232Z,13.30
2019-05-22T13:40:06.733Z,13.30
2019-05-22T13:42:38.887Z,13.30
2019-05-22T13:45:27.904Z,13.20
2019-05-22T13:47:46.402Z,13.30
2019-05-22T13:50:21.145Z,13.30
2019-05-22T13:52:55.740Z,13.20
2019-05-22T13:55:28.024Z,13.40
2019-05-22T13:58:00.548Z,13.30
2019-05-22T14:00:34.913Z,13.10
2019-05-22T14:03:07.087Z,13.10
2019-05-22T14:05:41.218Z,13.00
2019-05-22T14:08:14.691Z,12.90
2019-05-22T14:10:49.794Z,13.00
2019-05-22T14:13:22.659Z,13.00
2019-05-22T14:15:56.987Z,13.00
2019-05-22T14:18:28.283Z,13.10
2019-05-22T14:21:01.960Z,13.00
2019-05-22T14:23:34.594Z,13.10
2019-05-22T14:26:06.683Z,13.10
2019-05-22T14:28:38.741Z,13.10
2019-05-22T14:31:10.764Z,13.20
2019-05-22T14:33:42.858Z,13.20
2019-05-22T14:36:16.218Z,13.30
2019-05-22T14:38:48.779Z,13.40
2019-05-22T14:41:21.172Z,13.50
2019-05-22T14:43:53.151Z,13.30
2019-05-22T14:46:25.237Z,13.30
2019-05-22T14:48:57.286Z,13.30
2019-05-22T14:51:30.106Z,13.10
2019-05-22T14:54:03.291Z,13.10
2019-05-22T14:56:35.422Z,13.20
2019-05-22T14:59:07.465Z,13.20
2019-05-22T15:01:52.423Z,13.20
2019-05-22T15:04:24.626Z,13.20
2019-05-22T15:06:56.928Z,13.20
2019-05-22T15:09:28.736Z,13.20
2019-05-22T15:12:01.308Z,13.30
2019-05-22T15:14:33.403Z,13.20
2019-05-22T15:17:06.315Z,13.20
2019-05-22T15:19:38.551Z,13.20
2019-05-22T15:22:10.891Z,13.20
2019-05-22T15:24:43.121Z,13.20
2019-05-22T15:27:15.649Z,13.20
2019-05-22T15:29:47.598Z,13.20
2019-05-22T15:32:25.598Z,13.30
2019-05-22T15:34:57.459Z,13.20
2019-05-22T15:37:30.944Z,13.20
2019-05-22T15:40:05.270Z,13.30
2019-05-22T15:42:39.384Z,13.20
2019-05-22T15:45:18.131Z,13.20
2019-05-22T15:47:55.619Z,13.20
2019-05-22T15:50:28.175Z,13.20
2019-05-22T15:53:06.301Z,13.20
2019-05-22T15:55:39.570Z,13.20
2019-05-22T15:58:14.722Z,13.20
2019-05-22T16:00:47.509Z,13.20
2019-05-22T16:03:22.132Z,13.20
2019-05-22T16:05:54.412Z,13.20
2019-05-22T16:08:27.993Z,13.30
2019-05-22T16:11:01.618Z,13.30
2019-05-22T16:13:34.701Z,13.20
2019-05-22T16:16:08.836Z,13.30
2019-05-22T16:18:42.942Z,13.30
2019-05-22T16:21:15.128Z,13.20
2019-05-22T16:23:47.853Z,13.40
2019-05-22T16:26:21.340Z,13.30
2019-05-22T16:28:53.602Z,13.30
2019-05-22T16:31:26.223Z,13.30
2019-05-22T16:33:58.806Z,13.20
2019-05-22T16:36:32.094Z,13.10
2019-05-22T16:39:06.910Z,13.10
2019-05-22T16:41:39.567Z,13.10
2019-05-22T16:44:13.006Z,13.10
2019-05-22T16:46:45.945Z,13.10
2019-05-22T16:49:17.865Z,13.20
2019-05-22T16:51:50.410Z,13.30
2019-05-22T16:54:23.242Z,13.20
2019-05-22T16:56:55.483Z,13.20
2019-05-22T16:59:28.506Z,13.30
2019-05-22T17:02:02.137Z,13.20
2019-05-22T17:04:37.367Z,13.20
2019-05-22T17:07:10.231Z,13.20
2019-05-22T17:09:42.961Z,13.30
2019-05-22T17:12:17.928Z,13.40
2019-05-22T17:14:50.590Z,13.30
2019-05-22T17:17:24.131Z,13.40
2019-05-22T17:19:56.456Z,13.40
2019-05-22T17:22:29.055Z,13.40
2019-05-22T17:25:01.203Z,13.40
2019-05-22T17:27:33.460Z,13.50
2019-05-22T17:30:09.399Z,13.40
2019-05-22T17:32:42.175Z,13.40
2019-05-22T17:35:16.715Z,13.30
2019-05-22T17:37:49.847Z,13.30
2019-05-22T17:40:23.020Z,13.40
2019-05-22T17:42:55.395Z,13.40
2019-05-22T17:45:28.195Z,13.50
2019-05-22T17:48:01.147Z,13.50
2019-05-22T17:50:32.980Z,13.40
2019-05-22T17:53:05.539Z,13.40
2019-05-22T17:55:38.075Z,13.50
2019-05-22T17:58:10.850Z,13.50
2019-05-22T18:00:46.360Z,13.50
2019-05-22T18:03:19.075Z,13.40
2019-05-22T18:05:51.434Z,13.50
2019-05-22T18:08:23.953Z,13.40
2019-05-22T18:10:58.441Z,13.40
2019-05-22T18:13:30.923Z,13.40
2019-05-22T18:16:04.772Z,13.40
2019-05-22T18:18:39.442Z,13.50
2019-05-22T18:21:11.455Z,13.50
2019-05-22T18:23:43.545Z,13.40
2019-05-22T18:26:16.539Z,13.50
2019-05-22T18:28:48.411Z,13.50
2019-05-22T18:31:21.570Z,13.30
2019-05-22T18:33:53.808Z,13.30
2019-05-22T18:36:26.195Z,13.40
2019-05-22T18:38:58.683Z,13.40
2019-05-22T18:41:30.955Z,13.30
2019-05-22T18:44:03.782Z,13.40
2019-05-22T18:46:36.699Z,13.30
2019-05-22T18:49:08.595Z,13.30
2019-05-22T18:51:41.093Z,13.40
2019-05-22T18:54:13.461Z,13.40
2019-05-22T18:56:45.492Z,13.30
2019-05-22T18:59:17.417Z,13.40
2019-05-22T19:01:49.851Z,13.40
2019-05-22T19:04:22.073Z,13.40
2019-05-22T19:06:55.991Z,13.40
2019-05-22T19:09:28.915Z,13.40
2019-05-22T19:12:02.272Z,13.50
2019-05-22T19:14:34.212Z,13.40
2019-05-22T19:17:07.387Z,13.40
2019-05-22T19:19:39.587Z,13.40
2019-05-22T19:22:11.760Z,13.40
2019-05-22T19:24:43.895Z,13.50
2019-05-22T19:27:15.855Z,13.40
2019-05-22T19:29:47.692Z,13.40
2019-05-22T19:32:20.200Z,13.40
2019-05-22T19:34:52.818Z,13.40
2019-05-22T19:37:24.931Z,13.40
2019-05-22T19:39:56.659Z,13.40
2019-05-22T19:42:29.600Z,13.30
2019-05-22T19:45:02.763Z,13.40
2019-05-22T19:47:35.607Z,13.30
2019-05-22T19:50:22.900Z,13.30
2019-05-22T19:52:44.271Z,13.40
2019-05-22T19:55:19.042Z,13.50
2019-05-22T19:57:51.378Z,13.30
2019-05-22T20:00:24.294Z,13.30
2019-05-22T20:02:56.380Z,13.30
2019-05-22T20:05:28.564Z,13.20
2019-05-22T20:08:01.368Z,13.30
2019-05-22T20:10:33.406Z,13.30
2019-05-22T20:13:06.087Z,13.20
2019-05-22T20:15:38.182Z,13.20
2019-05-22T20:18:11.098Z,13.10
2019-05-22T20:20:42.907Z,13.20
2019-05-22T20:23:15.717Z,13.10
2019-05-22T20:25:47.842Z,13.10
2019-05-22T20:28:19.983Z,13.20
2019-05-22T20:30:52.049Z,13.20
2019-05-22T20:33:26.989Z,13.20
2019-05-22T20:35:58.240Z,13.20
2019-05-22T20:38:30.617Z,13.20
2019-05-22T20:41:03.167Z,13.20
2019-05-22T20:43:37.005Z,13.20
2019-05-22T20:46:09.052Z,13.20
2019-05-22T20:48:41.119Z,13.20
2019-05-22T20:51:14.794Z,13.00
2019-05-22T20:53:54.149Z,13.10
2019-05-22T20:56:24.491Z,13.00
2019-05-22T20:58:57.199Z,13.20
2019-05-22T21:01:29.718Z,13.20
2019-05-22T21:04:05.916Z,13.10
2019-05-22T21:06:42.657Z,13.00
2019-05-22T21:09:15.856Z,13.00
2019-05-22T21:11:48.658Z,13.00
2019-05-22T21:14:21.670Z,13.10
2019-05-22T21:16:53.620Z,13.10
2019-05-22T21:19:26.631Z,13.00
2019-05-22T21:21:59.581Z,13.00
2019-05-22T21:24:35.986Z,12.90
2019-05-22T21:27:08.603Z,13.00
2019-05-22T21:29:40.707Z,13.00
2019-05-22T21:32:13.253Z,13.00
2019-05-22T21:34:45.536Z,13.00
2019-05-22T21:37:18.951Z,13.00
2019-05-22T21:39:51.384Z,12.90
2019-05-22T21:42:24.383Z,12.90
2019-05-22T21:44:56.486Z,12.90
2019-05-22T21:47:28.813Z,12.90
2019-05-22T21:50:01.306Z,12.90
2019-05-22T21:52:35.406Z,12.80
2019-05-22T21:55:10.201Z,12.90
2019-05-22T21:57:46.032Z,12.90
2019-05-22T22:00:36.550Z,12.90
2019-05-22T22:03:10.598Z,12.90
2019-05-22T22:05:44.247Z,12.90
2019-05-22T22:08:16.851Z,12.90
2019-05-22T22:10:49.603Z,12.80
2019-05-22T22:13:22.140Z,12.90
2019-05-22T22:15:53.902Z,12.90
2019-05-22T22:18:26.469Z,12.90
2019-05-22T22:20:59.117Z,12.90
2019-05-22T22:23:31.775Z,12.90
2019-05-22T22:26:23.260Z,12.80
2019-05-22T22:28:39.654Z,12.90
2019-05-22T22:31:14.247Z,12.80
2019-05-22T22:33:50.118Z,12.80
2019-05-22T22:36:22.327Z,12.80
2019-05-22T22:38:55.011Z,12.80
2019-05-22T22:41:27.455Z,12.70
2019-05-22T22:44:00.308Z,12.70
2019-05-22T22:46:47.338Z,12.70
2019-05-22T22:49:20.649Z,12.70
2019-05-22T22:51:54.451Z,12.70
2019-05-22T22:54:27.679Z,12.70
2019-05-22T22:56:59.730Z,12.60
2019-05-22T22:59:32.374Z,12.60
2019-05-22T23:02:08.799Z,12.70
2019-05-22T23:04:43.415Z,12.60
2019-05-22T23:07:16.747Z,12.60
2019-05-22T23:09:48.870Z,12.50
2019-05-22T23:12:21.896Z,12.50
2019-05-22T23:14:57.446Z,12.50
2019-05-22T23:17:30.883Z,12.50
2019-05-22T23:20:02.047Z,12.50
2019-05-22T23:22:33.948Z,12.60
2019-05-22T23:25:06.531Z,12.60
2019-05-22T23:27:39.199Z,12.50
2019-05-22T23:30:13.016Z,12.50
2019-05-22T23:32:44.851Z,12.50
2019-05-22T23:35:29.651Z,12.50
2019-05-22T23:38:02.774Z,12.60
2019-05-22T23:40:35.741Z,12.50
2019-05-22T23:43:09.547Z,12.50
2019-05-22T23:45:41.766Z,12.40
2019-05-22T23:48:15.484Z,12.40
2019-05-22T23:50:47.591Z,12.30
2019-05-22T23:53:22.807Z,12.20
2019-05-22T23:55:56.154Z,12.30
2019-05-22T23:58:28.421Z,12.30
